Time;durP1;ratioP1;P1;durP2;ratioP2;P2;SDS_P1;SDS_P2;PMS_P1;PMS_P2;Temp;Humidity;BMP_temperature;BMP_pressure;BME280_temperature;BME280_humidity;BME280_pressure;Samples;Min_cycle;Max_cycle;Signal;HPM_P1;HPM_P2
2022/08/08 00:02:42;;;;;;;4.57;4.27;;;22.90;83.50;;;;;;6219927;28;20229;-62
2022/08/08 00:05:55;;;;;;;5.53;4.97;;;22.90;83.50;;;;;;6222283;28;20241;-63
2022/08/08 00:09:12;;;;;;;4.83;4.43;;;22.80;83.90;;;;;;6223958;28;20229;-63
2022/08/08 00:12:25;;;;;;;4.50;4.20;;;22.80;84.00;;;;;;6224558;28;20225;-61
2022/08/08 00:15:39;;;;;;;5.10;4.70;;;22.80;83.90;;;;;;6223561;28;20306;-62
2022/08/08 00:19:10;;;;;;;5.80;5.30;;;22.80;84.50;;;;;;6225492;28;20549;-62
2022/08/08 00:22:22;;;;;;;4.90;4.43;;;22.80;84.10;;;;;;6224911;28;20371;-62
2022/08/08 00:25:36;;;;;;;5.07;4.57;;;22.80;84.60;;;;;;6224828;28;20237;-62
2022/08/08 00:28:58;;;;;;;4.37;3.97;;;22.80;85.30;;;;;;6225188;28;20249;-62
2022/08/08 00:32:12;;;;;;;4.50;4.10;;;22.80;84.90;;;;;;6225274;28;20280;-61
2022/08/08 00:35:46;;;;;;;5.27;4.77;;;22.80;85.00;;;;;;6225138;28;20244;-62
2022/08/08 00:39:02;;;;;;;4.80;4.40;;;22.80;85.10;;;;;;6225205;28;20236;-61
2022/08/08 00:42:48;;;;;;;4.43;4.13;;;22.70;85.20;;;;;;6224759;28;20658;-62
2022/08/08 00:46:03;;;;;;;4.77;4.47;;;22.70;85.70;;;;;;6225217;28;20237;-62
2022/08/08 00:49:58;;;;;;;4.63;4.30;;;22.70;85.90;;;;;;6224993;28;20213;-62
2022/08/08 00:53:14;;;;;;;4.90;4.50;;;22.70;86.00;;;;;;6225066;28;20229;-61
2022/08/08 00:57:08;;;;;;;4.63;4.33;;;22.70;85.70;;;;;;6224778;28;20225;-62
2022/08/08 01:00:23;;;;;;;5.03;4.53;;;22.70;86.30;;;;;;6147054;28;20237;-62
2022/08/08 01:03:53;;;;;;;4.23;3.93;;;22.70;86.30;;;;;;6224653;28;20233;-61
2022/08/08 01:07:53;;;;;;;6.13;4.23;;;22.70;86.90;;;;;;6224981;28;20234;-61
2022/08/08 01:11:22;;;;;;;5.00;4.60;;;22.70;86.80;;;;;;6227132;28;20229;-61
2022/08/08 01:15:04;;;;;;;6.60;4.83;;;22.70;86.90;;;;;;6229124;28;20230;-61
2022/08/08 01:18:50;;;;;;;5.00;4.70;;;22.70;86.80;;;;;;6229040;28;20351;-61
2022/08/08 01:22:44;;;;;;;4.97;4.67;;;22.80;86.90;;;;;;6228494;28;20665;-61
2022/08/08 01:26:29;;;;;;;4.33;3.93;;;22.70;87.00;;;;;;6130243;29;20248;-61
2022/08/08 01:30:10;;;;;;;5.17;4.77;;;22.80;87.50;;;;;;6154804;28;20229;-62
2022/08/08 01:33:42;;;;;;;5.07;3.93;;;22.70;87.80;;;;;;6228677;28;20237;-61
2022/08/08 01:37:37;;;;;;;4.53;4.13;;;22.70;88.10;;;;;;6228754;28;20429;-61
2022/08/08 01:41:09;;;;;;;5.13;4.73;;;22.70;88.90;;;;;;6228656;28;20300;-61
2022/08/08 01:44:40;;;;;;;4.83;4.53;;;22.60;89.50;;;;;;6228518;28;20379;-61
2022/08/08 01:47:56;;;;;;;4.37;4.00;;;22.60;89.90;;;;;;6228527;28;20315;-61
2022/08/08 01:51:58;;;;;;;4.70;4.40;;;22.60;90.00;;;;;;6228509;28;20229;-61
2022/08/08 01:55:29;;;;;;;4.90;4.50;;;22.60;90.20;;;;;;6228383;28;20233;-61
2022/08/08 01:59:08;;;;;;;4.53;4.23;;;22.50;90.20;;;;;;6228356;28;20555;-61
2022/08/08 02:02:24;;;;;;;4.90;4.50;;;22.50;90.30;;;;;;6227806;28;20244;-61
2022/08/08 02:05:59;;;;;;;5.90;4.20;;;22.50;90.30;;;;;;6227916;28;20561;-61
2022/08/08 02:09:16;;;;;;;4.60;4.30;;;22.40;90.50;;;;;;6228159;28;20297;-61
2022/08/08 02:12:25;;;;;;;5.80;4.47;;;22.40;90.70;;;;;;6218875;28;20233;-62
2022/08/08 02:15:38;;;;;;;4.93;4.37;;;22.30;90.80;;;;;;6227344;28;20705;-62
2022/08/08 02:18:53;;;;;;;5.20;4.80;;;22.30;91.00;;;;;;6227765;28;20240;-62
2022/08/08 02:25:42;;;;;;;5.37;4.97;;;22.20;90.80;;;;;;6227073;28;20236;-61
2022/08/08 02:29:06;;;;;;;5.33;4.80;;;22.10;91.20;;;;;;6227329;28;20300;-61
2022/08/08 02:32:31;;;;;;;4.50;4.17;;;22.10;91.60;;;;;;6226971;28;20229;-61
2022/08/08 02:36:03;;;;;;;5.47;4.97;;;22.10;91.70;;;;;;6227657;28;20285;-62
2022/08/08 02:39:26;;;;;;;5.50;4.50;;;22.10;91.90;;;;;;6203047;28;20241;-62
2022/08/08 02:43:13;;;;;;;4.30;4.00;;;22.10;92.00;;;;;;6202212;28;20304;-61
2022/08/08 02:46:49;;;;;;;4.63;4.33;;;22.10;92.40;;;;;;6202259;28;20246;-62
2022/08/08 02:50:15;;;;;;;6.30;5.70;;;22.10;92.60;;;;;;6202855;28;20373;-62
2022/08/08 02:53:49;;;;;;;5.53;5.03;;;22.10;92.70;;;;;;6202629;28;20236;-61
2022/08/08 02:57:24;;;;;;;6.00;4.37;;;22.10;92.80;;;;;;6199766;28;20300;-61
2022/08/08 03:01:09;;;;;;;5.13;4.70;;;22.10;92.80;;;;;;6202523;28;20564;-61
2022/08/08 03:04:59;;;;;;;5.10;4.70;;;22.00;92.80;;;;;;6202284;28;20230;-62
2022/08/08 03:08:49;;;;;;;4.60;4.30;;;22.10;93.10;;;;;;6202228;28;20226;-62
2022/08/08 03:12:20;;;;;;;5.13;4.70;;;22.10;93.20;;;;;;6202135;28;20245;-61
2022/08/08 03:16:19;;;;;;;5.07;4.50;;;22.10;93.30;;;;;;6197500;28;20446;-61
2022/08/08 03:20:00;;;;;;;5.10;4.70;;;22.00;93.50;;;;;;6202317;28;20252;-61
2022/08/08 03:23:07;;;;;;;5.80;5.30;;;22.00;93.50;;;;;;6201992;28;20230;-61
2022/08/08 03:26:10;;;;;;;5.20;4.80;;;22.00;93.50;;;;;;6201663;28;20244;-61
2022/08/08 03:29:19;;;;;;;5.53;5.03;;;22.00;93.60;;;;;;6201615;28;20233;-61
2022/08/08 03:36:13;;;;;;;4.63;4.30;;;22.00;93.80;;;;;;6201797;28;20230;-61
2022/08/08 03:39:23;;;;;;;5.00;4.60;;;22.00;93.90;;;;;;6201524;28;20658;-61
2022/08/08 03:42:26;;;;;;;4.83;4.40;;;22.00;93.90;;;;;;6201451;28;20234;-61
2022/08/08 03:45:32;;;;;;;5.07;4.60;;;22.00;93.90;;;;;;6201204;28;20693;-61
2022/08/08 03:48:56;;;;;;;5.50;5.03;;;22.00;93.90;;;;;;6201509;28;20234;-61
2022/08/08 03:52:19;;;;;;;5.23;4.83;;;22.00;94.00;;;;;;6200970;28;20659;-61
2022/08/08 03:55:24;;;;;;;5.37;4.97;;;22.00;93.90;;;;;;6201408;28;20209;-61
2022/08/08 03:58:49;;;;;;;5.27;4.87;;;22.00;93.90;;;;;;6201638;28;20226;-61
2022/08/08 04:01:53;;;;;;;5.00;4.60;;;22.00;94.00;;;;;;6201117;28;20230;-61
2022/08/08 04:05:16;;;;;;;4.97;4.67;;;22.00;94.00;;;;;;6201215;28;20257;-61
2022/08/08 04:08:25;;;;;;;5.30;4.70;;;22.00;94.10;;;;;;6201350;28;20237;-61
2022/08/08 04:11:41;;;;;;;4.83;4.43;;;22.00;94.10;;;;;;6201168;28;20242;-61
2022/08/08 04:15:00;;;;;;;5.00;4.60;;;22.00;94.20;;;;;;6201105;28;20272;-62
2022/08/08 04:18:05;;;;;;;5.73;5.23;;;22.10;94.30;;;;;;6201215;28;20555;-62
2022/08/08 04:21:11;;;;;;;5.13;4.73;;;22.00;94.20;;;;;;6200904;28;20233;-62
2022/08/08 04:24:14;;;;;;;5.10;4.70;;;22.00;94.30;;;;;;6200551;28;20237;-62
2022/08/08 04:27:34;;;;;;;5.30;4.80;;;22.00;94.20;;;;;;6200522;28;20316;-62
2022/08/08 04:30:57;;;;;;;5.27;4.87;;;22.10;94.20;;;;;;6201141;28;20226;-63
2022/08/08 04:34:06;;;;;;;6.47;5.03;;;22.00;94.20;;;;;;6200813;28;20547;-62
2022/08/08 04:37:11;;;;;;;5.67;5.10;;;22.10;94.20;;;;;;6200504;28;20309;-62
2022/08/08 04:40:14;;;;;;;6.97;4.83;;;22.10;94.10;;;;;;6201069;28;20638;-62
2022/08/08 04:43:21;;;;;;;5.27;4.87;;;22.10;94.00;;;;;;6200521;28;20225;-62
2022/08/08 04:46:44;;;;;;;5.87;5.37;;;22.10;94.10;;;;;;6204696;28;20245;-62
2022/08/08 04:49:48;;;;;;;4.50;4.10;;;22.10;94.10;;;;;;6205463;28;20230;-62
2022/08/08 04:53:03;;;;;;;5.07;4.70;;;22.10;93.90;;;;;;6205228;28;20679;-62
2022/08/08 04:56:26;;;;;;;5.07;4.67;;;22.20;93.90;;;;;;6205299;28;20226;-62
2022/08/08 04:59:31;;;;;;;7.20;5.30;;;22.20;93.80;;;;;;6205398;28;20233;-61
2022/08/08 05:02:44;;;;;;;6.20;5.30;;;22.30;93.90;;;;;;6204780;28;20249;-61
2022/08/08 05:05:47;;;;;;;5.40;4.90;;;22.30;93.90;;;;;;6205244;28;20226;-61
2022/08/08 05:08:56;;;;;;;5.00;4.60;;;22.10;94.20;;;;;;6204908;28;20238;-61
2022/08/08 05:12:06;;;;;;;5.90;5.30;;;22.10;94.10;;;;;;6204692;28;20248;-61
2022/08/08 05:15:12;;;;;;;4.80;4.40;;;22.20;93.60;;;;;;6204406;28;20714;-61
2022/08/08 05:18:16;;;;;;;5.03;4.70;;;22.30;93.60;;;;;;6203927;28;20293;-62
2022/08/08 05:21:19;;;;;;;5.80;5.30;;;22.40;93.10;;;;;;6197974;28;20282;-62
2022/08/08 05:24:25;;;;;;;5.80;5.30;;;22.60;92.80;;;;;;6204301;28;20713;-62
2022/08/08 05:27:28;;;;;;;5.93;5.53;;;22.60;92.60;;;;;;6204424;28;20241;-62
2022/08/08 05:30:38;;;;;;;6.23;4.80;;;22.70;92.50;;;;;;6204150;28;20678;-62
2022/08/08 05:33:49;;;;;;;6.10;4.90;;;22.70;91.90;;;;;;6205671;28;20234;-62
2022/08/08 05:36:53;;;;;;;5.37;4.87;;;22.70;91.70;;;;;;6228257;28;20240;-62
2022/08/08 05:40:03;;;;;;;5.00;4.60;;;22.70;91.70;;;;;;6227219;28;20237;-62
2022/08/08 05:43:09;;;;;;;6.23;5.63;;;22.70;91.90;;;;;;6228176;28;20228;-62
2022/08/08 05:46:35;;;;;;;6.03;4.93;;;22.80;91.80;;;;;;6228127;28;20240;-62
2022/08/08 05:49:41;;;;;;;7.87;5.53;;;22.70;91.80;;;;;;6228051;28;20229;-62
2022/08/08 05:52:58;;;;;;;6.93;5.20;;;22.70;91.80;;;;;;6227444;28;20244;-61
2022/08/08 05:56:22;;;;;;;7.63;5.20;;;22.70;91.70;;;;;;6227640;28;20222;-62
2022/08/08 05:59:26;;;;;;;6.20;5.40;;;22.70;91.60;;;;;;6228159;28;20310;-62
2022/08/08 06:03:12;;;;;;;4.80;4.50;;;22.60;91.60;;;;;;6228000;28;20244;-61
2022/08/08 06:06:29;;;;;;;6.03;5.43;;;22.70;91.60;;;;;;6228283;28;20241;-62
2022/08/08 06:09:38;;;;;;;5.70;5.20;;;22.70;91.60;;;;;;6227510;28;20237;-62
2022/08/08 06:13:01;;;;;;;5.53;4.90;;;22.80;91.50;;;;;;6227923;28;20238;-61
2022/08/08 06:16:06;;;;;;;5.77;5.20;;;22.90;91.20;;;;;;6227469;28;20247;-62
2022/08/08 06:19:12;;;;;;;5.37;4.93;;;22.90;91.30;;;;;;6227897;28;20646;-62
2022/08/08 06:22:18;;;;;;;5.77;5.27;;;23.00;91.10;;;;;;6227286;28;20237;-61
2022/08/08 06:25:41;;;;;;;5.57;4.77;;;22.90;90.90;;;;;;6228001;28;20230;-61
2022/08/08 06:29:08;;;;;;;4.80;4.40;;;22.90;90.90;;;;;;6227276;28;20239;-62
2022/08/08 06:32:31;;;;;;;5.70;5.30;;;22.90;90.70;;;;;;6226764;28;20237;-61
2022/08/08 06:35:37;;;;;;;5.13;4.63;;;22.90;90.50;;;;;;6226988;28;20236;-62
2022/08/08 06:39:03;;;;;;;5.33;4.93;;;23.00;90.40;;;;;;6226337;28;20233;-62
2022/08/08 06:42:11;;;;;;;4.80;4.40;;;23.10;90.40;;;;;;6226656;28;20244;-62
2022/08/08 06:45:15;;;;;;;5.13;4.63;;;23.20;89.50;;;;;;6226939;28;20543;-62
2022/08/08 06:48:18;;;;;;;6.00;5.03;;;23.40;89.60;;;;;;6226396;28;20221;-62
2022/08/08 06:51:24;;;;;;;4.80;4.40;;;23.40;88.60;;;;;;6226019;28;20677;-62
2022/08/08 06:54:48;;;;;;;4.70;4.40;;;23.50;88.50;;;;;;6224808;28;20236;-61
2022/08/08 06:57:52;;;;;;;4.17;3.97;;;23.60;87.90;;;;;;6226018;28;20221;-62
2022/08/08 07:01:01;;;;;;;5.10;4.63;;;23.60;87.40;;;;;;6226386;28;20292;-62
2022/08/08 07:04:35;;;;;;;4.57;4.17;;;23.50;86.70;;;;;;6225266;28;20225;-61
2022/08/08 07:08:04;;;;;;;5.03;4.60;;;23.40;86.20;;;;;;6225704;28;20256;-62
2022/08/08 07:11:09;;;;;;;4.40;3.80;;;23.50;87.10;;;;;;6226757;28;20316;-62
2022/08/08 07:14:27;;;;;;;4.77;4.47;;;23.70;86.10;;;;;;6226239;28;20249;-63
2022/08/08 07:17:37;;;;;;;4.57;4.27;;;23.80;85.90;;;;;;6226322;28;20229;-64
2022/08/08 07:21:07;;;;;;;4.73;4.30;;;23.90;85.50;;;;;;6226004;28;20225;-63
2022/08/08 07:24:29;;;;;;;4.53;4.13;;;24.10;84.20;;;;;;6225766;28;20240;-62
2022/08/08 07:27:37;;;;;;;6.70;4.63;;;24.20;83.10;;;;;;6223480;28;20626;-63
2022/08/08 07:31:03;;;;;;;5.07;4.63;;;24.20;83.00;;;;;;6211072;28;20217;-63
2022/08/08 07:34:07;;;;;;;4.87;4.47;;;24.20;82.40;;;;;;6222236;28;20224;-62
2022/08/08 07:37:13;;;;;;;6.03;4.70;;;24.30;82.60;;;;;;6223822;28;20229;-62
2022/08/08 07:40:18;;;;;;;4.23;3.93;;;24.50;82.20;;;;;;6225425;28;20761;-62
2022/08/08 07:43:33;;;;;;;4.80;4.40;;;24.60;81.90;;;;;;6223424;28;20327;-62
2022/08/08 07:46:39;;;;;;;4.37;3.97;;;24.80;81.20;;;;;;6225415;28;20550;-63
2022/08/08 07:49:43;;;;;;;4.30;4.00;;;24.80;80.60;;;;;;6225278;28;20244;-62
2022/08/08 07:52:52;;;;;;;4.63;4.33;;;24.90;80.70;;;;;;6225331;28;20243;-62
2022/08/08 07:56:00;;;;;;;4.50;4.10;;;24.90;80.70;;;;;;6225462;28;20311;-62
2022/08/08 07:59:05;;;;;;;5.00;4.70;;;24.90;80.00;;;;;;6225314;28;20319;-62
2022/08/08 08:02:21;;;;;;;8.07;7.33;;;24.90;80.20;;;;;;6226016;28;20323;-62
2022/08/08 08:05:42;;;;;;;6.80;4.90;;;24.60;80.00;;;;;;6225428;28;20560;-62
2022/08/08 08:08:49;;;;;;;4.93;4.57;;;24.50;80.20;;;;;;6225111;28;20260;-62
2022/08/08 08:11:56;;;;;;;8.03;4.00;;;24.50;81.30;;;;;;6223900;28;20568;-62
2022/08/08 08:15:05;;;;;;;4.30;3.93;;;24.60;81.00;;;;;;6225002;28;20233;-62
2022/08/08 08:18:09;;;;;;;5.10;4.60;;;24.70;81.70;;;;;;6225698;28;20645;-62
2022/08/08 08:21:17;;;;;;;4.90;4.10;;;24.90;81.10;;;;;;6230439;28;20243;-62
2022/08/08 08:24:21;;;;;;;7.73;6.60;;;25.00;80.40;;;;;;6229410;28;20379;-62
2022/08/08 08:27:34;;;;;;;4.50;3.70;;;25.00;79.20;;;;;;6228227;28;20232;-62
2022/08/08 08:30:38;;;;;;;4.87;4.47;;;25.00;79.30;;;;;;6229410;28;20240;-62
2022/08/08 08:33:42;;;;;;;6.10;4.40;;;25.00;79.60;;;;;;6217921;28;20228;-62
2022/08/08 08:36:48;;;;;;;4.90;4.40;;;25.10;78.90;;;;;;6227048;28;20235;-63
2022/08/08 08:39:56;;;;;;;4.43;4.00;;;25.20;77.90;;;;;;6227242;28;20214;-62
2022/08/08 08:43:06;;;;;;;8.17;3.93;;;25.40;77.40;;;;;;6226318;28;20565;-63
2022/08/08 08:46:20;;;;;;;5.03;4.10;;;25.40;77.90;;;;;;6228830;28;20215;-62
2022/08/08 08:49:28;;;;;;;5.83;4.80;;;25.30;76.90;;;;;;6229546;28;20216;-62
2022/08/08 08:52:40;;;;;;;5.17;4.77;;;25.30;76.70;;;;;;6229159;28;20232;-62
2022/08/08 08:56:02;;;;;;;5.70;5.07;;;25.20;76.90;;;;;;6226153;28;20375;-62
2022/08/08 08:59:08;;;;;;;5.10;4.07;;;25.20;77.80;;;;;;6229244;28;20303;-62
2022/08/08 09:02:20;;;;;;;4.90;4.50;;;25.00;78.40;;;;;;6228385;28;20625;-62
2022/08/08 09:05:25;;;;;;;5.63;4.40;;;24.90;78.30;;;;;;6228719;28;20307;-62
2022/08/08 09:08:54;;;;;;;6.40;5.13;;;24.90;79.30;;;;;;6228980;28;20249;-62
2022/08/08 09:12:01;;;;;;;5.67;5.17;;;24.60;80.40;;;;;;6229190;28;20240;-62
2022/08/08 09:15:13;;;;;;;4.97;4.47;;;24.60;80.50;;;;;;6229408;28;20229;-62
2022/08/08 09:18:20;;;;;;;6.30;5.30;;;24.70;80.60;;;;;;6228829;28;20301;-63
2022/08/08 09:21:28;;;;;;;5.00;4.60;;;24.80;80.80;;;;;;6228426;28;20395;-62
2022/08/08 09:24:53;;;;;;;8.33;5.83;;;24.80;81.20;;;;;;6228559;28;20241;-62
2022/08/08 09:27:58;;;;;;;5.67;5.10;;;24.80;81.50;;;;;;6228529;28;20741;-62
2022/08/08 09:31:09;;;;;;;9.00;5.87;;;25.00;81.30;;;;;;6227961;28;20233;-63
2022/08/08 09:34:19;;;;;;;8.57;5.23;;;25.20;80.40;;;;;;6222374;28;20688;-63
2022/08/08 09:37:47;;;;;;;6.00;5.40;;;25.40;80.20;;;;;;6229247;28;20236;-62
2022/08/08 09:41:06;;;;;;;6.77;6.17;;;25.80;79.50;;;;;;6229014;28;20239;-62
2022/08/08 09:44:21;;;;;;;6.50;5.43;;;25.50;78.70;;;;;;6224661;28;20229;-62
2022/08/08 09:47:38;;;;;;;5.27;4.87;;;25.20;80.00;;;;;;6214471;28;20235;-62
2022/08/08 09:51:03;;;;;;;6.07;5.50;;;25.20;80.80;;;;;;6226705;28;20241;-61
2022/08/08 09:54:08;;;;;;;7.20;6.60;;;25.70;81.10;;;;;;6226948;28;20237;-64
2022/08/08 09:57:32;;;;;;;5.33;4.90;;;26.00;79.20;;;;;;6226752;28;20236;-62
2022/08/08 10:00:49;;;;;;;7.33;5.37;;;26.00;78.90;;;;;;6226734;28;20228;-63
2022/08/08 10:04:01;;;;;;;7.40;5.17;;;26.10;77.90;;;;;;6226668;28;20243;-62
2022/08/08 10:07:11;;;;;;;6.43;5.63;;;26.00;77.90;;;;;;6226593;28;20236;-62
2022/08/08 10:10:24;;;;;;;7.80;6.10;;;26.00;78.80;;;;;;6226948;28;20229;-62
2022/08/08 10:13:33;;;;;;;6.13;5.63;;;26.00;78.90;;;;;;6226587;28;20244;-62
2022/08/08 10:16:44;;;;;;;5.80;5.30;;;26.10;78.00;;;;;;6226658;28;20313;-62
2022/08/08 10:19:57;;;;;;;7.60;6.30;;;25.60;79.20;;;;;;6226445;28;20306;-63
2022/08/08 10:23:03;;;;;;;6.23;5.83;;;25.80;79.20;;;;;;6226554;28;20262;-62
2022/08/08 10:26:09;;;;;;;7.53;5.80;;;26.10;78.60;;;;;;6226101;28;20241;-63
2022/08/08 10:29:40;;;;;;;7.83;5.30;;;26.20;77.50;;;;;;6226309;28;20738;-62
2022/08/08 10:33:00;;;;;;;6.40;5.80;;;26.30;77.10;;;;;;6226125;28;20235;-62
2022/08/08 10:36:05;;;;;;;5.67;5.17;;;26.40;75.80;;;;;;6225779;28;20283;-63
2022/08/08 10:39:24;;;;;;;6.80;5.60;;;26.30;76.30;;;;;;6221191;28;20228;-62
2022/08/08 10:42:49;;;;;;;7.20;6.50;;;26.40;75.90;;;;;;6222563;28;20233;-59
2022/08/08 10:45:52;;;;;;;6.20;5.70;;;26.20;75.30;;;;;;6217717;28;20570;-60
2022/08/08 10:48:59;;;;;;;7.20;6.13;;;26.40;75.40;;;;;;6225457;28;20716;-61
2022/08/08 10:52:04;;;;;;;6.73;6.23;;;26.70;75.00;;;;;;6225562;28;20243;-60
2022/08/08 10:55:12;;;;;;;7.50;5.80;;;27.10;73.70;;;;;;6225584;28;20228;-60
2022/08/08 10:58:17;;;;;;;6.40;5.73;;;27.50;71.50;;;;;;6224927;28;20737;-61
2022/08/08 11:01:20;;;;;;;6.80;6.30;;;28.10;70.20;;;;;;6225452;28;20201;-59
2022/08/08 11:04:24;;;;;;;6.40;5.80;;;28.30;68.90;;;;;;6225998;28;20240;-59
2022/08/08 11:07:47;;;;;;;5.80;5.40;;;28.20;69.80;;;;;;6226223;28;20236;-62
2022/08/08 11:11:11;;;;;;;6.40;5.50;;;27.90;70.30;;;;;;6225033;28;20243;-61
2022/08/08 11:14:34;;;;;;;7.43;6.23;;;27.50;71.30;;;;;;6225823;28;20251;-62
2022/08/08 11:17:40;;;;;;;8.63;5.83;;;27.80;71.00;;;;;;6225206;28;20282;-62
2022/08/08 11:21:06;;;;;;;6.47;5.87;;;28.00;70.20;;;;;;6224586;28;20255;-63
2022/08/08 11:24:13;;;;;;;7.10;5.30;;;28.10;70.00;;;;;;6224214;28;20236;-62
2022/08/08 11:27:17;;;;;;;5.87;5.47;;;28.10;68.50;;;;;;6224573;28;20228;-63
2022/08/08 11:30:33;;;;;;;6.70;5.03;;;28.10;68.40;;;;;;6224425;28;20236;-62
2022/08/08 11:33:49;;;;;;;5.40;4.90;;;27.80;68.80;;;;;;6225076;28;20233;-63
2022/08/08 11:37:04;;;;;;;7.23;6.47;;;27.30;70.60;;;;;;6226074;28;20282;-63
2022/08/08 11:40:19;;;;;;;6.20;5.77;;;27.20;70.90;;;;;;6221199;28;20216;-63
2022/08/08 11:43:29;;;;;;;6.20;5.00;;;27.20;70.50;;;;;;6226246;28;20291;-63
2022/08/08 11:46:44;;;;;;;6.50;6.00;;;26.90;70.80;;;;;;6226245;28;20236;-63
2022/08/08 11:49:56;;;;;;;7.47;5.70;;;26.80;71.00;;;;;;6225579;28;20233;-63
2022/08/08 11:53:01;;;;;;;6.17;5.57;;;26.80;70.80;;;;;;6225103;28;20244;-63
2022/08/08 11:56:18;;;;;;;6.60;6.00;;;26.50;71.90;;;;;;6225579;28;20256;-63
2022/08/08 11:59:32;;;;;;;6.07;5.47;;;26.60;71.40;;;;;;6225699;28;20232;-63
2022/08/08 12:02:56;;;;;;;6.70;6.10;;;26.80;71.10;;;;;;6225040;28;20247;-64
2022/08/08 12:05:59;;;;;;;6.53;5.93;;;27.00;70.40;;;;;;6225874;28;20243;-63
2022/08/08 12:09:06;;;;;;;6.40;5.80;;;27.00;69.90;;;;;;6225346;28;20228;-63
2022/08/08 12:12:21;;;;;;;5.83;5.23;;;26.60;70.20;;;;;;6225398;28;20244;-62
2022/08/08 12:15:34;;;;;;;6.20;5.80;;;26.70;71.30;;;;;;6225597;28;20237;-62
2022/08/08 12:18:50;;;;;;;5.80;5.33;;;26.60;71.10;;;;;;6224589;28;20242;-63
2022/08/08 12:22:06;;;;;;;6.00;5.60;;;26.40;70.90;;;;;;6222563;28;20235;-61
2022/08/08 12:25:21;;;;;;;6.37;5.50;;;26.10;71.90;;;;;;6224976;28;20283;-61
2022/08/08 12:28:34;;;;;;;5.90;5.40;;;26.10;71.70;;;;;;6225226;28;20272;-63
2022/08/08 12:31:37;;;;;;;5.83;5.43;;;26.20;71.50;;;;;;6225296;28;20244;-61
2022/08/08 12:35:02;;;;;;;6.80;5.03;;;26.40;71.20;;;;;;6225079;28;20673;-62
2022/08/08 12:38:15;;;;;;;7.63;6.20;;;26.80;70.30;;;;;;6225096;28;20329;-62
2022/08/08 12:41:21;;;;;;;8.17;5.57;;;26.90;69.40;;;;;;6225125;28;20543;-62
2022/08/08 12:44:46;;;;;;;6.03;5.53;;;26.80;69.40;;;;;;6224975;28;20229;-62
2022/08/08 12:47:59;;;;;;;6.57;5.97;;;26.60;69.80;;;;;;6211648;28;20266;-62
2022/08/08 12:51:20;;;;;;;5.93;5.43;;;26.50;70.00;;;;;;6224993;28;20232;-62
2022/08/08 12:54:25;;;;;;;5.43;5.03;;;26.40;70.70;;;;;;6225110;28;20239;-62
2022/08/08 12:57:30;;;;;;;6.40;5.83;;;26.40;71.00;;;;;;6225018;28;20359;-62
2022/08/08 13:00:41;;;;;;;6.77;6.17;;;26.40;71.10;;;;;;6224926;28;20225;-62
2022/08/08 13:03:47;;;;;;;8.80;6.23;;;26.40;71.30;;;;;;6224432;28;20316;-62
2022/08/08 13:06:56;;;;;;;6.30;5.80;;;26.50;71.80;;;;;;6227494;28;20294;-62
2022/08/08 13:10:03;;;;;;;5.80;5.30;;;26.50;71.40;;;;;;6229208;28;20247;-62
2022/08/08 13:13:26;;;;;;;6.77;6.20;;;26.50;71.40;;;;;;6229557;28;20236;-63
2022/08/08 13:16:37;;;;;;;6.53;5.37;;;26.50;71.70;;;;;;6229648;28;20247;-63
2022/08/08 13:19:41;;;;;;;6.33;5.87;;;26.50;71.90;;;;;;6228929;28;20232;-61
2022/08/08 13:23:04;;;;;;;5.47;5.17;;;26.40;72.30;;;;;;6228681;28;20236;-61
2022/08/08 13:26:31;;;;;;;6.27;5.67;;;26.40;72.50;;;;;;6228534;28;20237;-61
2022/08/08 13:29:35;;;;;;;6.43;5.93;;;26.40;72.70;;;;;;6229056;28;20691;-61
2022/08/08 13:32:44;;;;;;;5.67;5.27;;;26.40;72.80;;;;;;6228584;28;20742;-61
2022/08/08 13:35:47;;;;;;;6.60;6.10;;;26.40;73.00;;;;;;6228681;28;20233;-62
2022/08/08 13:38:52;;;;;;;5.60;5.20;;;26.50;72.70;;;;;;6228635;28;20240;-63
2022/08/08 13:41:56;;;;;;;6.30;5.80;;;26.50;72.70;;;;;;6228998;28;20239;-63
2022/08/08 13:45:03;;;;;;;6.13;5.70;;;26.50;73.10;;;;;;6228373;28;20295;-61
2022/08/08 13:48:13;;;;;;;6.63;6.00;;;26.60;73.10;;;;;;6228138;28;20235;-61
2022/08/08 13:51:17;;;;;;;6.10;5.70;;;26.60;72.60;;;;;;6227931;28;20224;-62
2022/08/08 13:54:40;;;;;;;6.93;5.63;;;26.80;72.10;;;;;;6227071;28;20233;-62
2022/08/08 13:57:46;;;;;;;6.10;5.60;;;26.80;72.00;;;;;;6226543;28;20272;-62
2022/08/08 14:01:15;;;;;;;5.27;4.87;;;26.90;71.70;;;;;;6226910;28;20227;-62
2022/08/08 14:04:24;;;;;;;6.50;6.00;;;26.80;71.60;;;;;;6226670;28;20231;-63
2022/08/08 14:07:31;;;;;;;8.10;5.53;;;26.80;71.80;;;;;;6227426;28;20192;-62
2022/08/08 14:10:36;;;;;;;6.73;6.23;;;26.90;71.80;;;;;;6226762;28;20679;-62
2022/08/08 14:13:41;;;;;;;6.37;5.97;;;26.90;71.90;;;;;;6226439;28;20255;-63
2022/08/08 14:17:03;;;;;;;6.70;6.00;;;26.90;71.90;;;;;;6225846;28;20228;-63
2022/08/08 14:20:12;;;;;;;6.87;6.27;;;26.80;71.80;;;;;;6226345;28;20220;-64
2022/08/08 14:23:43;;;;;;;6.43;6.00;;;26.70;72.20;;;;;;6226033;28;20240;-62
2022/08/08 14:27:19;;;;;;;6.60;6.00;;;26.50;72.90;;;;;;6202315;28;20692;-62
2022/08/08 14:30:34;;;;;;;5.90;5.40;;;26.40;73.60;;;;;;6216712;28;20236;-62
2022/08/08 14:33:38;;;;;;;5.90;5.40;;;26.40;73.80;;;;;;6226494;28;20237;-61
2022/08/08 14:36:43;;;;;;;7.07;6.50;;;26.30;74.10;;;;;;6226028;28;20319;-61
2022/08/08 14:39:58;;;;;;;7.20;6.60;;;26.30;74.70;;;;;;6225981;28;20242;-61
2022/08/08 14:43:08;;;;;;;7.07;6.37;;;26.20;74.40;;;;;;6225824;28;20237;-62
2022/08/08 14:46:32;;;;;;;7.00;6.37;;;26.10;74.90;;;;;;6225737;28;20240;-61
2022/08/08 14:49:36;;;;;;;7.03;6.37;;;26.00;75.40;;;;;;6225923;28;20679;-62
2022/08/08 14:53:02;;;;;;;3.60;3.30;;;25.90;75.60;;;;;;6221484;28;20246;-61
2022/08/08 14:56:07;;;;;;;3.40;3.10;;;25.80;69.30;;;;;;6226147;28;20231;-62
2022/08/08 14:59:12;;;;;;;2.83;2.63;;;25.70;67.10;;;;;;6226467;28;20229;-62
2022/08/08 15:02:33;;;;;;;5.80;2.47;;;25.70;66.40;;;;;;6225627;28;20233;-60
2022/08/08 15:05:37;;;;;;;2.63;2.10;;;25.70;65.10;;;;;;6225280;28;20597;-61
2022/08/08 15:08:58;;;;;;;2.30;2.10;;;25.70;63.60;;;;;;6225413;28;20232;-62
2022/08/08 15:12:01;;;;;;;4.30;2.50;;;25.60;62.30;;;;;;6226172;28;20240;-63
2022/08/08 15:15:06;;;;;;;3.03;2.30;;;25.60;62.90;;;;;;6225466;28;20264;-60
2022/08/08 15:18:11;;;;;;;4.37;2.30;;;25.70;62.30;;;;;;6225238;28;20236;-58
2022/08/08 15:21:14;;;;;;;2.17;1.97;;;25.60;62.40;;;;;;6225070;28;20228;-59
2022/08/08 15:24:19;;;;;;;3.57;2.30;;;25.70;62.10;;;;;;6225057;28;20232;-60
2022/08/08 15:27:23;;;;;;;2.70;2.50;;;25.60;62.20;;;;;;6225312;28;20241;-60
2022/08/08 15:30:46;;;;;;;2.97;2.27;;;25.60;62.70;;;;;;6224205;28;20225;-60
2022/08/08 15:33:52;;;;;;;2.73;2.53;;;25.60;62.40;;;;;;6224490;28;20233;-62
2022/08/08 15:37:04;;;;;;;2.17;2.07;;;25.60;62.20;;;;;;6225037;28;20259;-59
2022/08/08 15:40:09;;;;;;;2.80;2.60;;;25.50;63.30;;;;;;6224545;28;20248;-60
2022/08/08 15:43:16;;;;;;;4.17;2.67;;;25.50;63.20;;;;;;6223737;28;20673;-61
2022/08/08 15:46:37;;;;;;;2.60;2.27;;;25.20;63.50;;;;;;6223376;28;20685;-61
2022/08/08 15:49:48;;;;;;;2.97;2.77;;;25.00;64.30;;;;;;6225048;28;20244;-62
2022/08/08 15:52:52;;;;;;;2.30;2.10;;;25.10;65.10;;;;;;6219479;28;20232;-62
2022/08/08 15:55:56;;;;;;;3.67;3.10;;;25.20;65.40;;;;;;6223608;28;20232;-61
2022/08/08 15:59:01;;;;;;;5.30;2.93;;;25.30;65.50;;;;;;6224576;28;20235;-62
2022/08/08 16:02:05;;;;;;;4.60;2.80;;;25.40;65.70;;;;;;6224411;28;20221;-62
2022/08/08 16:05:15;;;;;;;2.90;2.60;;;25.40;65.80;;;;;;6225470;28;20586;-62
2022/08/08 16:08:20;;;;;;;2.53;2.33;;;25.50;66.00;;;;;;6225204;28;20224;-61
2022/08/08 16:11:25;;;;;;;2.60;2.40;;;25.50;66.10;;;;;;6225683;28;20565;-61
2022/08/08 16:14:48;;;;;;;3.30;3.00;;;25.50;66.30;;;;;;6226942;28;20233;-61
2022/08/08 16:17:56;;;;;;;2.73;2.53;;;25.40;66.60;;;;;;6226293;28;20226;-61
2022/08/08 16:21:14;;;;;;;2.50;2.30;;;25.40;66.50;;;;;;6225935;28;20263;-61
2022/08/08 16:24:29;;;;;;;2.70;2.50;;;25.20;66.30;;;;;;6224274;28;20236;-62
2022/08/08 16:27:34;;;;;;;2.33;2.13;;;25.00;66.40;;;;;;6223543;28;20236;-60
2022/08/08 16:30:38;;;;;;;2.20;2.00;;;25.00;66.50;;;;;;6224341;28;20236;-60
2022/08/08 16:33:42;;;;;;;2.50;2.30;;;25.00;66.90;;;;;;6223599;28;20653;-60
2022/08/08 16:37:01;;;;;;;2.83;2.63;;;24.90;67.00;;;;;;6223833;28;20247;-61
2022/08/08 16:40:05;;;;;;;2.97;2.77;;;24.80;67.30;;;;;;6225527;28;20255;-61
2022/08/08 16:43:10;;;;;;;2.40;2.20;;;24.70;67.30;;;;;;6229794;28;20605;-61
2022/08/08 16:46:16;;;;;;;2.17;1.97;;;24.70;67.70;;;;;;6230432;28;20229;-61
2022/08/08 16:49:39;;;;;;;2.77;2.30;;;24.60;67.20;;;;;;6229349;28;20225;-62
2022/08/08 16:52:44;;;;;;;2.90;2.30;;;24.50;67.40;;;;;;6229700;28;20316;-60
2022/08/08 16:56:08;;;;;;;2.20;2.00;;;24.30;68.00;;;;;;6229509;28;20225;-61
2022/08/08 16:59:17;;;;;;;2.90;1.93;;;24.30;67.90;;;;;;6229490;28;20270;-60
2022/08/08 17:02:23;;;;;;;3.90;2.43;;;24.30;68.00;;;;;;6226501;28;20239;-60
2022/08/08 17:05:41;;;;;;;3.93;2.50;;;24.40;67.80;;;;;;6226045;28;20221;-60